• Join FlightAware (Why Join?)
  • Login
  • US Flag 
06:45PM EDT


 

Airport Tracker/Info


-or-


 

Live Flight TrackerFlight Track Log ✈ UAL4295 ✈ 21-Apr-2013 ✈ KEWR - KMCI

Flight Track Log - Related Links

Times and Time Zones

All times are in EDT time to prevent confusion due to time zone crossing. See the UAL4295 flight status page for this flight to view local times or setup timezone preferences in your user account.

Time Position Orientation Groundspeed Altitude Reporting Facility
EDT Latitude Longitude Course Direction KTS MPH feet Rate Location/Type
06:41PM 40.7500 -74.1167 303° West 212 244 2,400  Level New York TRACON
06:42PM 40.7833 -74.1833 303° West 248 285 5,200 2,460 Climbing New York TRACON
06:43PM 40.7481 -74.6795 277° West  Level FlightAware Approximate
06:43PM 40.8000 -74.2833 282° West 271 312 7,400  Level New York TRACON
06:44PM 40.7587 -74.8126 276° West  Level FlightAware Approximate
06:44PM 40.8167 -74.3833 282° West 287 330 9,600  Level New York TRACON
06:45PM 40.7756 -74.9435 294° West  Level FlightAware Approximate
06:45PM 40.8167 -74.4833 270° West 315 362 10,800  Level New York TRACON
06:46PM 40.7869 -75.0738 303° West  Level FlightAware Approximate
06:47PM 40.8167 -74.7086 270° West 372 428 13,800  Level New York Center
06:48PM 40.8119 -74.8481 267° West 359 413 15,800 1,740 Climbing New York Center
06:49PM 40.7997 -74.9625 262° West 346 398 17,400 1,260 Climbing New York Center
06:50PM 40.7725 -75.0814 253° West 346 398 18,400 1,320 Climbing New York Center
06:51PM 40.7425 -75.2136 253° West 351 404 20,100 1,740 Climbing New York Center
06:52PM 40.7153 -75.3322 253° West 351 404 21,900 1,800 Climbing New York Center
06:53PM 40.6894 -75.4539 254° West 351 404 23,700 1,680 Climbing New York Center
06:54PM 40.6622 -75.5669 252° West 345 397 25,400 1,740 Climbing New York Center
06:55PM 40.6367 -75.6772 253° West 330 380 27,200 1,320 Climbing New York Center
06:56PM 40.6114 -75.7847 253° West 320 368 28,000 360 Climbing New York Center
06:57PM 40.5753 -75.8969 247° West 320 368 28,000  Level New York Center
06:58PM 40.5264 -76.0133 241° Southwest 347 399 28,000  Level New York Center
06:59PM 40.4814 -76.1356 244° Southwest 365 420 28,000  Level New York Center
07:00PM 40.4339 -76.2628 244° Southwest 383 441 28,100 600 Climbing New York Center
07:01PM 40.3844 -76.3814 241° Southwest 388 447 29,200 1,080 Climbing New York Center
07:02PM 40.3411 -76.5006 245° Southwest 378 435 30,300 1,140 Climbing New York Center
07:03PM 40.2939 -76.6136 241° Southwest 373 429 31,500 1,140 Climbing New York Center
07:04PM 40.2489 -76.7242 242° Southwest 360 414 32,600 1,080 Climbing New York Center
07:05PM 40.2058 -76.8319 242° Southwest 349 402 33,700 1,080 Climbing New York Center
07:06PM 40.1628 -76.9394 242° Southwest 342 394 34,800 1,020 Climbing New York Center
07:07PM 40.1269 -77.0286 242° Southwest 332 382 35,800 540 Climbing New York Center
07:08PM 40.0861 -77.1281 242° Southwest 325 374 36,000 60 Climbing New York Center
07:09PM 40.0158 -77.3028 242° Southwest 328 377 36,000  Level Cleveland Center
07:10PM 39.9708 -77.4161 243° Southwest 345 397 36,000  Level Cleveland Center
07:11PM 39.9600 -77.5522 264° West 358 412 36,000  Level Cleveland Center
07:12PM 39.9658 -77.6900 273° West 369 425 36,000  Level Cleveland Center
07:13PM 39.9692 -77.8281 272° West 380 437 36,000  Level Cleveland Center
07:14PM 39.9725 -77.9661 272° West 385 443 36,000  Level Cleveland Center
07:15PM 39.9778 -78.1069 273° West 385 443 36,000  Level Cleveland Center
07:16PM 39.9828 -78.2475 273° West 385 443 36,000  Level Cleveland Center
07:17PM 39.9817 -78.4047 270° West 390 449 36,000  Level Cleveland Center
07:18PM 39.9844 -78.5456 272° West 390 449 36,000  Level Cleveland Center
07:19PM 39.9889 -78.6864 272° West 390 449 36,000  Level Cleveland Center
07:20PM 39.9911 -78.8272 271° West 390 449 36,000  Level Cleveland Center
07:21PM 39.9931 -78.9681 271° West 390 449 36,000  Level Cleveland Center
07:22PM 39.9992 -79.0981 274° West 390 449 36,000  Level Cleveland Center
07:23PM 40.0031 -79.2389 272° West 395 455 36,000  Level Cleveland Center
07:24PM 40.0044 -79.3797 271° West 395 455 36,000  Level Cleveland Center
07:25PM 40.0081 -79.5369 272° West 395 455 36,000  Level Cleveland Center
07:26PM 40.0094 -79.6806 271° West 400 460 36,000  Level Cleveland Center
07:27PM 40.0125 -79.8214 272° West 400 460 36,000  Level Cleveland Center
07:28PM 40.0133 -79.9650 270° West 400 460 36,000  Level Cleveland Center
07:29PM 40.0161 -80.1061 272° West 400 460 36,000  Level Cleveland Center
07:30PM 40.0167 -80.2497 270° West 400 460 36,000  Level Cleveland Center
07:31PM 40.0192 -80.3933 271° West 400 460 36,000  Level Cleveland Center
07:32PM 40.0192 -80.5369 270° West 400 460 36,000  Level Cleveland Center
07:34PM 40.0164 -80.8508 269° West 402 463 36,000  Level Indianapolis Center
07:36PM 40.0139 -81.0219 269° West 401 461 36,000  Level Indianapolis Center
07:37PM 40.0117 -81.1683 269° West 401 461 36,000  Level Indianapolis Center
07:38PM 40.0097 -81.3158 269° West 402 463 36,000  Level Indianapolis Center
07:39PM 40.0067 -81.4636 269° West 403 464 36,000  Level Indianapolis Center
07:40PM 40.0042 -81.6086 269° West 396 456 36,000  Level Indianapolis Center
07:41PM 40.0008 -81.7550 268° West 400 460 36,000  Level Indianapolis Center
07:42PM 39.9981 -81.8947 269° West 403 464 36,000  Level Indianapolis Center
07:43PM 39.9942 -82.0636 268° West 396 456 36,000  Level Indianapolis Center
07:44PM 39.9900 -82.2111 268° West 401 461 36,000  Level Indianapolis Center
07:45PM 39.9858 -82.3564 268° West 399 459 36,000  Level Indianapolis Center
07:46PM 39.9819 -82.5044 268° West 403 464 36,000  Level Indianapolis Center
07:47PM 39.9778 -82.6508 268° West 402 463 36,000  Level Indianapolis Center
07:48PM 39.9736 -82.7986 268° West 405 466 36,000  Level Indianapolis Center
07:49PM 39.9686 -82.9447 267° West 401 461 36,000  Level Indianapolis Center
07:50PM 39.9650 -83.0919 268° West 405 466 36,000  Level Indianapolis Center
07:51PM 39.9619 -83.2389 268° West 404 465 36,000  Level Indianapolis Center
07:52PM 39.9561 -83.4106 268° West 409 471 36,000  Level Indianapolis Center
07:53PM 39.9497 -83.5556 267° West 408 470 36,000  Level Indianapolis Center
07:54PM 39.9447 -83.7028 268° West 410 472 36,000  Level Indianapolis Center
07:55PM 39.9394 -83.8522 267° West 410 472 36,000  Level Indianapolis Center
07:56PM 39.9342 -84.0022 267° West 413 475 36,000  Level Indianapolis Center
07:57PM 39.9281 -84.1536 267° West 415 478 36,000  Level Indianapolis Center
07:58PM 39.9208 -84.3311 267° West 417 480 36,000  Level Indianapolis Center
07:59PM 39.9131 -84.4833 266° West 418 481 36,000  Level Indianapolis Center
08:00PM 39.9064 -84.6356 267° West 420 483 36,000  Level Indianapolis Center
08:01PM 39.8972 -84.7886 266° West 421 484 36,000  Level Indianapolis Center
08:02PM 39.8914 -84.9422 267° West 421 484 36,000  Level Indianapolis Center
08:03PM 39.8833 -85.0950 266° West 420 483 36,000  Level Indianapolis Center
08:04PM 39.8758 -85.2489 266° West 421 484 36,000  Level Indianapolis Center
08:05PM 39.8683 -85.4022 266° West 422 486 36,000 -60 Level Indianapolis Center
08:06PM 39.8594 -85.5556 266° West 420 483 35,900  Descending Indianapolis Center
08:07PM 39.8522 -85.7083 267° West 421 484 36,000  Climbing Indianapolis Center
08:08PM 39.8433 -85.8619 266° West 422 486 36,000  Level Indianapolis Center
08:09PM 39.8342 -86.0325 266° West 420 483 36,000  Level Indianapolis Center
08:10PM 39.8253 -86.1856 266° West 423 487 36,000  Level Indianapolis Center
08:11PM 39.8167 -86.3389 266° West 424 488 36,000  Level Indianapolis Center
08:12PM 39.8169 -86.4917 270° West 422 486 36,000  Level Indianapolis Center
08:14PM 39.8203 -86.6447 272° West 423 487 36,000  Level Indianapolis Center
08:15PM 39.8228 -86.7994 271° West 425 489 36,000  Level Indianapolis Center
08:16PM 39.8250 -86.9522 271° West 423 487 36,000  Level Indianapolis Center
08:17PM 39.8283 -87.1364 271° West 424 488 36,000  Level Indianapolis Center
08:18PM 39.8308 -87.2875 271° West 421 484 36,000  Level Indianapolis Center
08:19PM 39.8328 -87.4408 271° West 423 487 36,000  Level Indianapolis Center
08:20PM 39.8342 -87.5933 271° West 421 484 36,000  Level Indianapolis Center
08:21PM 39.8358 -87.7447 271° West 420 483 36,000  Level Indianapolis Center
08:22PM 39.8372 -87.8950 271° West 418 481 36,000  Level Indianapolis Center
08:23PM 39.8392 -88.0439 271° West 415 478 36,000  Level Indianapolis Center
08:24PM 39.8408 -88.1944 271° West 415 478 36,000  Level Indianapolis Center
08:24PM 39.8406 -88.2569 270° West 418 481 36,000  Level Kansas City Center
08:25PM 39.8422 -88.4100 271° West 422 486 36,000  Level Kansas City Center
08:26PM 39.8425 -88.5622 270° West 421 484 36,000  Level Kansas City Center
08:27PM 39.8422 -88.7439 270° West 419 482 36,000  Level Kansas City Center
08:28PM 39.8422 -88.8964 270° West 420 483 36,000  Level Kansas City Center
08:29PM 39.8419 -89.0494 270° West 422 486 36,000  Level Kansas City Center
08:30PM 39.8422 -89.2025 270° West 422 486 36,000  Level Kansas City Center
08:31PM 39.8411 -89.3556 270° West 422 486 36,000  Level Kansas City Center
08:32PM 39.8403 -89.5089 270° West 423 487 36,000  Level Kansas City Center
08:33PM 39.8392 -89.6614 270° West 421 484 36,000  Level Kansas City Center
08:34PM 39.8406 -89.7842 271° West 422 486 36,000  Level Kansas City Center
08:36PM 39.8428 -89.9983 271° West 422 486 36,000  Level Kansas City Center
08:37PM 39.8447 -90.1503 271° West 421 484 36,000  Level Kansas City Center
08:38PM 39.8458 -90.3031 271° West 421 484 36,000  Level Kansas City Center
08:39PM 39.8467 -90.4556 270° West 420 483 36,000  Level Kansas City Center
08:40PM 39.8467 -90.6056 270° West 417 480 36,000  Level Kansas City Center
08:41PM 39.8475 -90.7586 270° West 419 482 36,000  Level Kansas City Center
08:42PM 39.8475 -90.9103 270° West 420 483 36,000  Level Kansas City Center
08:43PM 39.8486 -91.0867 271° West 421 484 36,000  Level Kansas City Center
08:44PM 39.8486 -91.2383 270° West 420 483 36,000  Level Kansas City Center
08:45PM 39.8406 -91.3881 266° West 418 481 36,000  Level Kansas City Center
08:46PM 39.8283 -91.5364 264° West 416 479 36,000  Level Kansas City Center
08:47PM 39.8175 -91.6850 265° West 415 478 36,000  Level Kansas City Center
08:48PM 39.8072 -91.8339 265° West 415 478 36,000  Level Kansas City Center
08:49PM 39.7922 -92.0139 264° West 417 480 36,000  Level Kansas City Center
08:50PM 39.7811 -92.1617 264° West 414 476 36,000  Level Kansas City Center
08:51PM 39.7686 -92.3108 264° West 416 479 36,000  Level Kansas City Center
08:52PM 39.7572 -92.4564 264° West 410 472 36,000 -240 Level Kansas City Center
08:53PM 39.7453 -92.6019 264° West 407 468 35,600 -1,680 Descending Kansas City Center
08:54PM 39.7322 -92.7472 263° West 405 466 32,600 -3,180 Descending Kansas City Center
08:55PM 39.7178 -92.9203 264° West 404 465 29,000 -3,300 Descending Kansas City Center
08:56PM 39.7044 -93.0661 263° West 407 468 26,000 -3,000 Descending Kansas City Center
08:57PM 39.6919 -93.2139 264° West 412 474 23,000 -2,880 Descending Kansas City Center
08:58PM 39.6794 -93.3606 264° West 411 473 20,000 -2,640 Descending Kansas City Center
08:59PM 39.6661 -93.4989 263° West 401 461 17,500 -2,400 Descending Kansas City Center
09:00PM 39.6539 -93.6311 263° West 378 435 15,100 -2,280 Descending Kansas City Center
09:01PM 39.6406 -93.7722 263° West 365 420 12,900 -2,040 Descending Kansas City Center
09:02PM 39.6197 -93.8978 258° West 318 366 11,000 -1,560 Descending Kansas City Center
09:03PM 39.5792 -93.9761 236° Southwest 273 314 9,700 -1,500 Descending Kansas City Center
09:04PM 39.5472 -94.0544 242° Southwest 258 297 8,000 -1,440 Descending Kansas City Center
09:05PM 39.5267 -94.1542 255° West 257 296 6,800 -1,080 Descending Kansas City Center
09:06PM 39.5069 -94.2417 254° West 263 303 5,900 -960 Descending Kansas City Center
09:07PM 39.4847 -94.3422 254° West 260 299 4,800 -960 Descending Kansas City Center
09:08PM 39.4647 -94.4256 253° West 254 292 4,000 -420 Descending Kansas City Center
09:09PM 39.4425 -94.5206 253° West 248 285 4,000  Level Kansas City Center